createdAt,value
2022-10-28T00:01:50.149Z,100261.91
2022-10-28T00:04:35.276Z,100256.81
2022-10-28T00:07:20.022Z,100255.03
2022-10-28T00:10:05.701Z,100256.44
2022-10-28T00:12:50.311Z,100265.16
2022-10-28T00:15:35.122Z,100252.34
2022-10-28T00:18:19.826Z,100255.09
2022-10-28T00:21:17.069Z,100251.75
2022-10-28T00:24:01.913Z,100246.78
2022-10-28T00:26:46.752Z,100250.75
2022-10-28T00:29:31.814Z,100255.53
2022-10-28T00:32:16.891Z,100243.84
2022-10-28T00:35:01.843Z,100247.00
2022-10-28T00:37:46.910Z,100242.25
2022-10-28T00:40:34.930Z,100241.47
2022-10-28T00:43:53.052Z,100237.31
2022-10-28T00:46:45.377Z,100238.47
2022-10-28T00:49:33.211Z,100253.91
2022-10-28T00:52:23.736Z,100256.25
2022-10-28T00:55:08.990Z,100258.03
2022-10-28T00:57:56.096Z,100259.41
2022-10-28T01:00:41.194Z,100252.91
2022-10-28T01:03:26.165Z,100253.16
2022-10-28T01:06:11.399Z,100248.97
2022-10-28T01:08:59.142Z,100246.22
2022-10-28T01:12:21.416Z,100257.88
2022-10-28T01:15:26.948Z,100250.81
2022-10-28T01:18:11.873Z,100244.88
2022-10-28T01:21:34.025Z,100247.81
2022-10-28T01:24:18.500Z,100246.63
2022-10-28T01:27:40.987Z,100242.06
2022-10-28T01:30:55.383Z,100242.63
2022-10-28T01:34:07.348Z,100253.47
2022-10-28T01:37:20.383Z,100250.31
2022-10-28T01:40:29.146Z,100240.94
2022-10-28T01:43:28.642Z,100232.75
2022-10-28T01:46:24.396Z,100238.56
2022-10-28T01:49:29.679Z,100250.19
2022-10-28T01:52:20.234Z,100248.91
2022-10-28T01:55:14.958Z,100243.75
2022-10-28T01:58:02.780Z,100239.72
2022-10-28T02:00:49.017Z,100241.59
2022-10-28T02:03:34.071Z,100222.75
2022-10-28T02:06:23.303Z,100235.03
2022-10-28T02:09:18.382Z,100232.91
2022-10-28T02:12:15.514Z,100228.59
2022-10-28T02:15:21.906Z,100226.75
2022-10-28T02:18:23.219Z,100223.94
2022-10-28T02:21:27.655Z,100226.69
2022-10-28T02:24:49.831Z,100224.03
2022-10-28T02:27:43.406Z,100220.00
2022-10-28T02:30:47.782Z,100215.78
2022-10-28T02:33:38.042Z,100215.31
2022-10-28T02:36:25.186Z,100221.69
2022-10-28T02:39:10.920Z,100213.31
2022-10-28T02:41:59.761Z,100219.47
2022-10-28T02:44:51.233Z,100212.84
2022-10-28T02:47:39.772Z,100212.69
2022-10-28T02:50:31.677Z,100204.81
2022-10-28T02:53:21.059Z,100206.56
2022-10-28T02:56:07.780Z,100208.09
2022-10-28T02:58:52.838Z,100208.53
2022-10-28T03:01:38.668Z,100205.97
2022-10-28T03:04:24.016Z,100203.69
2022-10-28T03:07:08.823Z,100209.69
2022-10-28T03:09:53.682Z,100217.00
2022-10-28T03:12:38.170Z,100211.44
2022-10-28T03:15:22.828Z,100220.16
2022-10-28T03:18:07.948Z,100216.19
2022-10-28T03:20:55.479Z,100218.91
2022-10-28T03:23:42.864Z,100217.94
2022-10-28T03:26:27.822Z,100205.78
2022-10-28T03:29:12.771Z,100207.72
2022-10-28T03:31:58.079Z,100212.56
2022-10-28T03:34:42.584Z,100204.34
2022-10-28T03:37:27.640Z,100215.03
2022-10-28T03:40:13.152Z,100210.09
2022-10-28T03:42:58.383Z,100210.09
2022-10-28T03:45:43.731Z,100213.81
2022-10-28T03:48:28.503Z,100205.66
2022-10-28T03:51:13.627Z,100197.56
2022-10-28T03:53:58.815Z,100201.88
2022-10-28T03:56:43.329Z,100201.53
2022-10-28T03:59:28.404Z,100206.47
2022-10-28T04:02:14.967Z,100200.41
2022-10-28T04:05:00.006Z,100194.94
2022-10-28T04:07:45.092Z,100189.44
2022-10-28T04:10:30.084Z,100184.53
2022-10-28T04:13:16.374Z,100184.03
2022-10-28T04:16:01.436Z,100182.25
2022-10-28T04:18:46.067Z,100192.78
2022-10-28T04:21:30.855Z,100187.78
2022-10-28T04:24:15.772Z,100185.28
2022-10-28T04:27:00.584Z,100185.41
2022-10-28T04:29:45.545Z,100189.38
2022-10-28T04:32:30.827Z,100184.06
2022-10-28T04:35:15.936Z,100184.25
2022-10-28T04:38:00.962Z,100178.16
2022-10-28T04:40:49.524Z,100178.94
2022-10-28T04:43:34.212Z,100177.53
2022-10-28T04:46:18.570Z,100178.53
2022-10-28T04:49:03.651Z,100175.97
2022-10-28T04:51:48.508Z,100168.09
2022-10-28T04:54:33.416Z,100179.94
2022-10-28T04:57:18.306Z,100174.97
2022-10-28T05:00:04.260Z,100179.47
2022-10-28T05:02:49.439Z,100181.69
2022-10-28T05:05:34.207Z,100184.69
2022-10-28T05:08:18.639Z,100174.34
2022-10-28T05:11:04.393Z,100174.13
2022-10-28T05:13:53.384Z,100166.34
2022-10-28T05:16:38.457Z,100169.94
2022-10-28T05:19:23.639Z,100173.19
2022-10-28T05:22:10.933Z,100177.78
2022-10-28T05:24:57.647Z,100178.06
2022-10-28T05:28:13.801Z,100181.75
2022-10-28T05:31:33.284Z,100179.25
2022-10-28T05:34:18.017Z,100184.91
2022-10-28T05:37:03.359Z,100187.97
2022-10-28T05:39:48.389Z,100190.84
2022-10-28T05:42:33.421Z,100191.53
2022-10-28T05:45:20.058Z,100196.19
2022-10-28T05:48:05.914Z,100186.78
2022-10-28T05:50:50.747Z,100181.31
2022-10-28T05:53:35.515Z,100173.13
2022-10-28T05:56:22.749Z,100182.91
2022-10-28T05:59:07.437Z,100175.50
2022-10-28T06:01:53.854Z,100183.09
2022-10-28T06:04:38.606Z,100184.13
2022-10-28T06:07:24.025Z,100170.13
2022-10-28T06:10:10.893Z,100177.19
2022-10-28T06:12:56.196Z,100178.16
2022-10-28T06:15:41.173Z,100185.56
2022-10-28T06:18:26.416Z,100183.03
2022-10-28T06:21:25.844Z,100178.72
2022-10-28T06:24:14.732Z,100185.50
2022-10-28T06:26:59.775Z,100186.53
2022-10-28T06:29:44.620Z,100191.66
2022-10-28T06:32:29.949Z,100182.19
2022-10-28T06:35:14.892Z,100182.63
2022-10-28T06:37:59.733Z,100191.97
2022-10-28T06:40:49.012Z,100178.72
2022-10-28T06:43:36.661Z,100191.19
2022-10-28T06:46:21.623Z,100192.16
2022-10-28T06:49:11.372Z,100186.41
2022-10-28T06:51:56.202Z,100189.38
2022-10-28T06:54:43.031Z,100188.19
2022-10-28T06:57:29.284Z,100184.84
2022-10-28T07:00:15.906Z,100190.03
2022-10-28T07:03:01.727Z,100178.16
2022-10-28T07:05:51.143Z,100192.59
2022-10-28T07:09:04.656Z,100178.34
2022-10-28T07:11:55.103Z,100188.44
2022-10-28T07:14:46.636Z,100187.88
2022-10-28T07:17:31.870Z,100194.78
2022-10-28T07:20:34.188Z,100191.22
2022-10-28T07:23:20.381Z,100188.22
2022-10-28T07:26:05.185Z,100190.41
2022-10-28T07:29:03.813Z,100167.44
2022-10-28T07:31:59.233Z,100186.19
2022-10-28T07:34:44.576Z,100178.75
2022-10-28T07:37:29.343Z,100173.50
2022-10-28T07:40:20.596Z,100173.56
2022-10-28T07:43:05.653Z,100178.69
2022-10-28T07:46:09.891Z,100184.88
2022-10-28T07:49:00.938Z,100163.91
2022-10-28T07:52:12.741Z,100178.00
2022-10-28T07:54:59.103Z,100169.16
2022-10-28T07:57:46.545Z,100170.97
2022-10-28T08:00:31.408Z,100174.91
2022-10-28T08:03:16.135Z,100177.72
2022-10-28T08:06:14.453Z,100168.91
2022-10-28T08:09:05.958Z,100172.00
2022-10-28T08:11:57.379Z,100169.97
2022-10-28T08:14:55.583Z,100171.56
2022-10-28T08:17:55.014Z,100174.19
2022-10-28T08:20:40.067Z,100168.47
2022-10-28T08:23:27.787Z,100181.50
2022-10-28T08:26:38.598Z,100178.66
2022-10-28T08:29:27.662Z,100171.59
2022-10-28T08:32:15.235Z,100168.16
2022-10-28T08:35:04.279Z,100160.97
2022-10-28T08:37:53.037Z,100166.97
2022-10-28T08:41:08.820Z,100171.34
2022-10-28T08:44:11.722Z,100167.50
2022-10-28T08:47:40.782Z,100160.56
2022-10-28T08:50:31.596Z,100161.97
2022-10-28T08:53:53.838Z,100153.56
2022-10-28T08:56:45.545Z,100152.84
2022-10-28T08:59:40.857Z,100149.94
2022-10-28T09:02:48.638Z,100152.22
2022-10-28T09:05:34.524Z,100138.25
2022-10-28T09:08:26.088Z,100146.41
2022-10-28T09:11:37.496Z,100137.38
2022-10-28T09:14:52.631Z,100141.88
2022-10-28T09:17:58.308Z,100143.75
2022-10-28T09:20:56.553Z,100137.50
2022-10-28T09:23:59.483Z,100135.50
2022-10-28T09:26:54.383Z,100137.19
2022-10-28T09:30:00.240Z,100127.84
2022-10-28T09:32:56.375Z,100132.34
2022-10-28T09:35:43.843Z,100125.50
2022-10-28T09:38:32.257Z,100125.94
2022-10-28T09:41:24.094Z,100131.06
2022-10-28T09:44:24.748Z,100132.63
2022-10-28T09:47:44.518Z,100122.31
2022-10-28T09:50:32.473Z,100116.31
2022-10-28T09:53:37.622Z,100123.44
2022-10-28T09:56:24.546Z,100116.91
2022-10-28T09:59:14.155Z,100112.78
2022-10-28T10:01:59.540Z,100108.56
2022-10-28T10:04:44.758Z,100106.22
2022-10-28T10:07:40.974Z,100095.50
2022-10-28T10:10:31.848Z,100092.31
2022-10-28T10:13:23.459Z,100096.41
2022-10-28T10:16:40.409Z,100092.19
2022-10-28T10:19:25.131Z,100073.38
2022-10-28T10:22:41.731Z,100070.06
2022-10-28T10:25:48.724Z,100072.47
2022-10-28T10:28:53.150Z,100074.75
2022-10-28T10:32:12.347Z,100075.09
2022-10-28T10:35:12.643Z,100074.44
2022-10-28T10:38:00.638Z,100066.53
2022-10-28T10:40:51.214Z,100071.09
2022-10-28T10:43:36.328Z,100061.78
2022-10-28T10:46:23.703Z,100067.81
2022-10-28T10:49:17.926Z,100070.41
2022-10-28T10:52:09.066Z,100078.66
2022-10-28T10:55:06.691Z,100072.47
2022-10-28T10:57:52.678Z,100079.00
2022-10-28T11:03:54.405Z,100074.59
2022-10-28T11:06:43.170Z,100062.44
2022-10-28T11:09:35.563Z,100063.56
2022-10-28T11:12:20.168Z,100067.94
2022-10-28T11:15:22.577Z,100067.03
2022-10-28T11:18:10.745Z,100066.41
2022-10-28T11:20:58.483Z,100064.69
2022-10-28T11:24:03.499Z,100059.00
2022-10-28T11:27:19.354Z,100053.47
2022-10-28T11:30:14.849Z,100045.50
2022-10-28T11:33:28.924Z,100050.75
2022-10-28T11:36:37.906Z,100050.22
2022-10-28T11:39:33.540Z,100047.72
2022-10-28T11:42:40.001Z,100052.50
2022-10-28T11:45:33.579Z,100050.53
2022-10-28T11:48:53.559Z,100050.69
2022-10-28T11:51:53.045Z,100058.94
2022-10-28T11:54:56.369Z,100051.66
2022-10-28T11:58:20.003Z,100054.03
2022-10-28T12:01:23.412Z,100047.25
2022-10-28T12:04:14.194Z,100045.00
2022-10-28T12:07:14.162Z,100047.00
2022-10-28T12:10:28.603Z,100044.78
2022-10-28T12:13:22.551Z,100045.44
2022-10-28T12:16:34.042Z,100044.00
2022-10-28T12:19:25.013Z,100043.94
2022-10-28T12:22:13.057Z,100040.78
2022-10-28T12:25:02.910Z,100046.38
2022-10-28T12:27:50.655Z,100042.91
2022-10-28T12:30:41.014Z,100043.38
2022-10-28T12:33:48.699Z,100041.50
2022-10-28T12:36:57.830Z,100043.47
2022-10-28T12:40:08.932Z,100036.78
2022-10-28T12:43:03.665Z,100032.69
2022-10-28T12:45:50.943Z,100026.41
2022-10-28T12:48:35.756Z,100025.44
2022-10-28T12:51:20.591Z,100026.56
2022-10-28T12:54:23.785Z,100028.13
2022-10-28T12:57:08.466Z,100024.75
2022-10-28T13:00:05.895Z,100024.03
2022-10-28T13:03:00.389Z,100012.41
2022-10-28T13:05:57.398Z,100020.72
2022-10-28T13:09:10.108Z,100024.28
2022-10-28T13:12:31.651Z,100014.38
2022-10-28T13:15:16.351Z,100020.50
2022-10-28T13:18:27.078Z,100013.09
2022-10-28T13:21:14.839Z,100015.84
2022-10-28T13:24:38.598Z,100012.59
2022-10-28T13:27:24.447Z,100015.66
2022-10-28T13:30:21.386Z,100012.66
2022-10-28T13:33:08.299Z,100019.66
2022-10-28T13:36:06.936Z,100014.94
2022-10-28T13:38:59.164Z,100007.22
2022-10-28T13:41:47.925Z,100001.41
2022-10-28T13:44:48.977Z,99999.19
2022-10-28T13:47:35.367Z,99995.47
2022-10-28T13:50:31.222Z,99999.16
2022-10-28T13:53:28.370Z,100003.66
2022-10-28T13:56:34.783Z,99996.66
2022-10-28T13:59:34.243Z,99989.44
2022-10-28T14:02:48.218Z,99991.44
2022-10-28T14:05:32.775Z,99986.19
2022-10-28T14:08:27.094Z,99986.81
2022-10-28T14:11:28.528Z,99987.47
2022-10-28T14:14:16.430Z,99985.41
2022-10-28T14:17:01.388Z,99978.38
2022-10-28T14:19:51.283Z,99971.00
2022-10-28T14:22:36.345Z,99976.13
2022-10-28T14:25:40.087Z,99977.91
2022-10-28T14:28:28.518Z,99978.63
2022-10-28T14:31:14.074Z,99975.19
2022-10-28T14:33:58.887Z,99973.50
2022-10-28T14:36:49.586Z,99969.47
2022-10-28T14:39:57.267Z,99971.00
2022-10-28T14:43:30.674Z,99979.75
2022-10-28T14:46:27.727Z,99965.75
2022-10-28T14:49:16.282Z,99968.41
2022-10-28T14:52:11.210Z,99967.09
2022-10-28T14:54:59.033Z,99965.19
2022-10-28T14:57:43.976Z,99962.03
2022-10-28T15:00:28.827Z,99962.38
2022-10-28T15:03:13.899Z,99957.81
2022-10-28T15:06:18.871Z,99959.06
2022-10-28T15:09:12.768Z,99967.50
2022-10-28T15:12:13.626Z,99956.09
2022-10-28T15:14:58.140Z,99965.69
2022-10-28T15:17:43.233Z,99961.03
2022-10-28T15:20:31.174Z,99960.28
2022-10-28T15:23:18.574Z,99953.41
2022-10-28T15:26:14.786Z,99958.19
2022-10-28T15:29:00.565Z,99962.94
2022-10-28T15:32:26.483Z,99958.81
2022-10-28T15:35:29.993Z,99961.59
2022-10-28T15:38:21.181Z,99960.22
2022-10-28T15:41:22.360Z,99962.03
2022-10-28T15:44:27.300Z,99953.91
2022-10-28T15:47:32.202Z,99951.91
2022-10-28T15:50:16.837Z,99950.13
2022-10-28T15:53:10.778Z,99943.59
2022-10-28T15:56:19.618Z,99949.75
2022-10-28T15:59:17.048Z,99946.97
2022-10-28T16:02:02.037Z,99941.03
2022-10-28T16:04:47.034Z,99931.09
2022-10-28T16:07:32.251Z,99942.38
2022-10-28T16:10:17.153Z,99939.44
2022-10-28T16:13:07.692Z,99926.94
2022-10-28T16:16:12.347Z,99930.16
2022-10-28T16:19:00.144Z,99928.81
2022-10-28T16:21:45.253Z,99924.84
2022-10-28T16:24:29.828Z,99919.69
2022-10-28T16:27:24.047Z,99914.50
2022-10-28T16:30:09.890Z,99912.28
2022-10-28T16:32:56.073Z,99906.72
2022-10-28T16:35:40.835Z,99909.25
2022-10-28T16:38:26.264Z,99909.97
2022-10-28T16:41:16.728Z,99911.13
2022-10-28T16:44:01.490Z,99909.06
2022-10-28T16:46:46.331Z,99899.69
2022-10-28T16:49:31.140Z,99895.66
2022-10-28T16:52:19.413Z,99894.44
2022-10-28T16:55:12.733Z,99889.75
2022-10-28T16:57:57.654Z,99890.97
2022-10-28T17:00:42.689Z,99890.59
2022-10-28T17:03:27.330Z,99895.03
2022-10-28T17:06:12.226Z,99893.28
2022-10-28T17:09:02.913Z,99887.41
2022-10-28T17:11:48.516Z,99894.19
2022-10-28T17:14:33.203Z,99885.69
2022-10-28T17:17:18.757Z,99883.56
2022-10-28T17:20:04.405Z,99887.19
2022-10-28T17:22:49.039Z,99880.34
2022-10-28T17:25:33.512Z,99883.16
2022-10-28T17:28:18.504Z,99885.22
2022-10-28T17:31:05.883Z,99890.00
2022-10-28T17:33:55.511Z,99889.88
2022-10-28T17:36:40.034Z,99891.91
2022-10-28T17:39:26.622Z,99887.78
2022-10-28T17:42:11.933Z,99880.44
2022-10-28T17:44:56.672Z,99871.28
2022-10-28T17:47:42.319Z,99883.06
2022-10-28T17:50:27.301Z,99869.13
2022-10-28T17:53:11.779Z,99876.78
2022-10-28T17:55:57.279Z,99880.63
2022-10-28T17:58:42.090Z,99873.34
2022-10-28T18:01:31.955Z,99870.06
2022-10-28T18:04:16.927Z,99871.03
2022-10-28T18:07:01.841Z,99871.59
2022-10-28T18:09:46.896Z,99869.44
2022-10-28T18:12:32.022Z,99868.28
2022-10-28T18:15:17.095Z,99864.41
2022-10-28T18:18:01.901Z,99861.50
2022-10-28T18:20:53.803Z,99871.28
2022-10-28T18:23:40.257Z,99870.63
2022-10-28T18:26:25.214Z,99868.91
2022-10-28T18:29:12.466Z,99871.78
2022-10-28T18:31:57.265Z,99868.66
2022-10-28T18:34:42.559Z,99871.28
2022-10-28T18:37:27.784Z,99863.56
2022-10-28T18:40:13.008Z,99861.38
2022-10-28T18:42:57.754Z,99857.28
2022-10-28T18:45:42.432Z,99858.09
2022-10-28T18:48:27.678Z,99858.50
2022-10-28T18:51:13.166Z,99858.13
2022-10-28T18:53:57.837Z,99851.81
2022-10-28T18:56:47.586Z,99854.00
2022-10-28T18:59:35.106Z,99855.81
2022-10-28T19:02:19.911Z,99855.25
2022-10-28T19:05:04.898Z,99857.66
2022-10-28T19:07:49.821Z,99863.81
2022-10-28T19:10:35.461Z,99857.91
2022-10-28T19:13:20.379Z,99853.38
2022-10-28T19:16:06.706Z,99860.72
2022-10-28T19:18:56.415Z,99864.66
2022-10-28T19:21:41.480Z,99865.69
2022-10-28T19:24:27.053Z,99859.78
2022-10-28T19:27:11.855Z,99862.94
2022-10-28T19:29:59.125Z,99867.09
2022-10-28T19:32:44.074Z,99866.50
2022-10-28T19:35:28.695Z,99863.34
2022-10-28T19:38:13.513Z,99862.56
2022-10-28T19:41:07.573Z,99860.19
2022-10-28T19:43:58.561Z,99856.25
2022-10-28T19:46:43.733Z,99850.13
2022-10-28T19:49:35.515Z,99852.09
2022-10-28T19:52:22.532Z,99842.41
2022-10-28T19:55:10.936Z,99841.22
2022-10-28T19:57:59.044Z,99838.25
2022-10-28T20:00:44.229Z,99828.53
2022-10-28T20:03:34.289Z,99831.09
2022-10-28T20:06:22.171Z,99824.97
2022-10-28T20:09:07.172Z,99830.69
2022-10-28T20:11:51.730Z,99828.13
2022-10-28T20:14:36.756Z,99832.06
2022-10-28T20:17:21.706Z,99834.63
2022-10-28T20:20:07.287Z,99834.63
2022-10-28T20:22:52.156Z,99840.38
2022-10-28T20:25:36.923Z,99847.50
2022-10-28T20:28:22.047Z,99829.72
2022-10-28T20:31:09.762Z,99838.22
2022-10-28T20:33:59.996Z,99836.66
2022-10-28T20:36:44.648Z,99827.56
2022-10-28T20:39:29.579Z,99828.75
2022-10-28T20:42:14.505Z,99824.59
2022-10-28T20:44:59.380Z,99824.41
2022-10-28T20:47:43.742Z,99827.97
2022-10-28T20:50:28.444Z,99830.94
2022-10-28T20:53:13.314Z,99822.84
2022-10-28T20:55:59.082Z,99823.25
2022-10-28T20:58:44.023Z,99817.09
2022-10-28T21:01:31.592Z,99817.88
2022-10-28T21:04:16.933Z,99820.09
2022-10-28T21:07:01.682Z,99829.00
2022-10-28T21:09:46.778Z,99819.69
2022-10-28T21:12:31.740Z,99819.91
2022-10-28T21:15:16.767Z,99820.50
2022-10-28T21:18:02.533Z,99831.34
2022-10-28T21:20:47.052Z,99823.84
2022-10-28T21:23:32.237Z,99817.31
2022-10-28T21:26:17.535Z,99824.06
2022-10-28T21:29:02.266Z,99826.22
2022-10-28T21:31:47.046Z,99833.16
2022-10-28T21:34:31.364Z,99830.78
2022-10-28T21:37:16.048Z,99825.44
2022-10-28T21:40:01.378Z,99833.34
2022-10-28T21:42:49.524Z,99827.22
2022-10-28T21:45:34.128Z,99815.75
2022-10-28T21:48:19.038Z,99818.72
2022-10-28T21:51:08.643Z,99809.63
2022-10-28T21:53:56.361Z,99802.50
2022-10-28T21:56:41.394Z,99809.22
2022-10-28T21:59:26.265Z,99807.47
2022-10-28T22:02:11.273Z,99809.22
2022-10-28T22:04:56.235Z,99804.91
2022-10-28T22:07:41.064Z,99805.09
2022-10-28T22:10:26.243Z,99803.31
2022-10-28T22:13:11.221Z,99803.50
2022-10-28T22:16:01.579Z,99799.78
2022-10-28T22:18:46.297Z,99790.28
2022-10-28T22:21:33.605Z,99804.28
2022-10-28T22:24:18.207Z,99800.94
2022-10-28T22:27:03.343Z,99798.75
2022-10-28T22:29:48.034Z,99800.13
2022-10-28T22:32:33.005Z,99804.47
2022-10-28T22:35:17.866Z,99806.63
2022-10-28T22:38:02.682Z,99804.47
2022-10-28T22:40:47.587Z,99804.25
2022-10-28T22:43:33.348Z,99806.47
2022-10-28T22:46:19.005Z,99802.72
2022-10-28T22:49:03.914Z,99798.94
2022-10-28T22:51:50.033Z,99797.56
2022-10-28T22:54:34.753Z,99792.03
2022-10-28T22:57:19.594Z,99795.19
2022-10-28T23:00:04.895Z,99795.59
2022-10-28T23:02:50.065Z,99797.34
2022-10-28T23:05:34.768Z,99800.53
2022-10-28T23:08:19.100Z,99799.13
2022-10-28T23:11:04.200Z,99796.78
2022-10-28T23:13:53.412Z,99805.88
2022-10-28T23:16:38.370Z,99796.38
2022-10-28T23:19:23.034Z,99795.97
2022-10-28T23:22:07.861Z,99797.53
2022-10-28T23:24:52.964Z,99801.09
2022-10-28T23:27:41.002Z,99802.44
2022-10-28T23:30:25.711Z,99805.81
2022-10-28T23:33:10.664Z,99793.75
2022-10-28T23:35:59.084Z,99793.94
2022-10-28T23:38:43.926Z,99784.44
2022-10-28T23:41:28.714Z,99777.94
2022-10-28T23:44:14.254Z,99779.31
2022-10-28T23:46:59.236Z,99772.41
2022-10-28T23:49:44.203Z,99770.44
2022-10-28T23:52:29.189Z,99771.44
2022-10-28T23:55:14.187Z,99770.81
2022-10-28T23:57:59.311Z,99773.59
